createdAt,value
2019-05-10T00:00:33.380Z,18.00
2019-05-10T00:03:21.426Z,14.80
2019-05-10T00:06:08.747Z,24.20
2019-05-10T00:08:46.787Z,18.20
2019-05-10T00:11:39.808Z,18.60
2019-05-10T00:14:28.864Z,20.20
2019-05-10T00:17:23.350Z,12.80
2019-05-10T00:19:53.159Z,13.20
2019-05-10T00:22:23.553Z,15.60
2019-05-10T00:25:02.838Z,11.60
2019-05-10T00:27:24.913Z,16.00
2019-05-10T00:29:55.043Z,16.00
2019-05-10T00:32:24.822Z,14.60
2019-05-10T00:34:54.485Z,13.80
2019-05-10T00:37:24.429Z,11.20
2019-05-10T00:39:54.032Z,15.20
2019-05-10T00:42:24.031Z,12.80
2019-05-10T00:44:54.238Z,15.80
2019-05-10T00:47:24.061Z,16.40
2019-05-10T00:49:53.652Z,12.40
2019-05-10T00:52:23.451Z,10.40
2019-05-10T00:54:52.979Z,13.00
2019-05-10T00:57:22.797Z,16.60
2019-05-10T00:59:52.546Z,12.20
2019-05-10T01:02:22.297Z,12.40
2019-05-10T01:04:52.087Z,12.00
2019-05-10T01:07:22.419Z,13.00
2019-05-10T01:09:52.344Z,5.00
2019-05-10T01:12:22.289Z,9.20
2019-05-10T01:14:52.315Z,12.20
2019-05-10T01:17:22.087Z,12.20
2019-05-10T01:19:52.331Z,10.00
2019-05-10T01:22:22.153Z,14.60
2019-05-10T01:24:51.977Z,12.20
2019-05-10T01:27:22.115Z,9.00
2019-05-10T01:29:51.864Z,10.00
2019-05-10T01:32:21.618Z,12.20
2019-05-10T01:34:51.261Z,10.00
2019-05-10T01:37:20.855Z,15.20
2019-05-10T01:39:50.960Z,10.00
2019-05-10T01:42:21.079Z,3.60
2019-05-10T01:44:50.942Z,11.80
2019-05-10T01:47:21.123Z,10.60
2019-05-10T01:49:50.846Z,7.80
2019-05-10T01:52:20.768Z,9.40
2019-05-10T01:54:50.913Z,5.80
2019-05-10T01:57:20.738Z,8.60
2019-05-10T01:59:51.147Z,7.40
2019-05-10T02:02:21.264Z,11.20
2019-05-10T02:04:51.141Z,11.60
2019-05-10T02:07:21.005Z,9.80
2019-05-10T02:09:50.931Z,11.60
2019-05-10T02:12:20.662Z,15.80
2019-05-10T02:14:50.839Z,11.20
2019-05-10T02:17:21.080Z,9.00
2019-05-10T02:19:50.800Z,9.20
2019-05-10T02:22:20.454Z,11.80
2019-05-10T02:24:50.199Z,7.00
2019-05-10T02:27:20.110Z,10.00
2019-05-10T02:29:50.169Z,10.00
2019-05-10T02:32:19.814Z,13.00
2019-05-10T02:34:49.531Z,11.20
2019-05-10T02:37:19.515Z,12.80
2019-05-10T02:39:49.311Z,9.60
2019-05-10T02:42:19.247Z,11.60
2019-05-10T02:44:48.914Z,9.40
2019-05-10T02:47:18.834Z,14.20
2019-05-10T02:49:48.630Z,12.80
2019-05-10T02:52:18.263Z,9.20
2019-05-10T02:54:47.991Z,12.40
2019-05-10T02:57:18.195Z,12.00
2019-05-10T02:59:48.235Z,9.80
2019-05-10T03:02:18.117Z,9.60
2019-05-10T03:04:48.196Z,11.60
2019-05-10T03:07:18.959Z,9.20
2019-05-10T03:09:50.285Z,9.20
2019-05-10T03:12:25.347Z,9.20
2019-05-10T03:14:56.126Z,14.00
2019-05-10T03:17:26.275Z,17.60
2019-05-10T03:19:57.972Z,13.80
2019-05-10T03:22:28.126Z,14.00
2019-05-10T03:24:58.519Z,13.00
2019-05-10T03:27:28.490Z,12.20
2019-05-10T03:29:58.461Z,17.60
2019-05-10T03:32:28.341Z,13.00
2019-05-10T03:34:58.412Z,12.00
2019-05-10T03:37:28.179Z,16.80
2019-05-10T03:39:58.137Z,18.20
2019-05-10T03:42:27.944Z,14.40
2019-05-10T03:44:57.602Z,16.80
2019-05-10T03:47:27.403Z,20.00
2019-05-10T03:49:57.480Z,16.40
2019-05-10T03:52:27.214Z,16.60
2019-05-10T03:54:57.033Z,11.60
2019-05-10T03:57:26.810Z,16.40
2019-05-10T03:59:56.840Z,16.60
2019-05-10T04:02:26.651Z,15.80
2019-05-10T04:04:56.302Z,19.00
2019-05-10T04:07:26.028Z,12.40
2019-05-10T04:09:55.876Z,15.60
2019-05-10T04:12:26.204Z,20.80
2019-05-10T04:14:55.909Z,18.00
2019-05-10T04:17:25.848Z,15.00
2019-05-10T04:19:55.740Z,21.60
2019-05-10T04:22:25.650Z,18.60
2019-05-10T04:24:55.452Z,19.60
2019-05-10T04:27:32.529Z,16.00
2019-05-10T04:29:58.075Z,17.20
2019-05-10T04:32:27.742Z,17.20
2019-05-10T04:34:57.732Z,17.60
2019-05-10T04:37:27.433Z,12.80
2019-05-10T04:39:57.244Z,19.20
2019-05-10T04:42:26.888Z,16.00
2019-05-10T04:44:56.852Z,11.40
2019-05-10T04:47:26.557Z,11.60
2019-05-10T04:49:56.498Z,16.60
2019-05-10T04:52:26.754Z,14.40
2019-05-10T04:54:56.509Z,17.20
2019-05-10T04:57:26.274Z,18.00
2019-05-10T04:59:55.954Z,22.60
2019-05-10T05:02:25.650Z,21.40
2019-05-10T05:04:55.411Z,23.80
2019-05-10T05:07:25.128Z,18.00
2019-05-10T05:09:56.137Z,17.40
2019-05-10T05:12:25.898Z,20.40
2019-05-10T05:14:55.864Z,17.80
2019-05-10T05:17:25.653Z,19.40
2019-05-10T05:19:55.727Z,17.00
2019-05-10T05:22:27.023Z,17.40
2019-05-10T05:25:01.326Z,18.20
2019-05-10T05:27:28.699Z,15.80
2019-05-10T05:29:58.435Z,14.00
2019-05-10T05:32:28.673Z,17.20
2019-05-10T05:34:58.406Z,12.20
2019-05-10T05:37:27.983Z,21.00
2019-05-10T05:39:58.438Z,17.20
2019-05-10T05:42:29.531Z,15.80
2019-05-10T05:44:59.526Z,14.80
2019-05-10T05:47:29.379Z,15.00
2019-05-10T05:49:59.409Z,9.40
2019-05-10T05:52:28.989Z,13.40
2019-05-10T05:54:59.325Z,10.00
2019-05-10T05:57:29.658Z,16.00
2019-05-10T06:00:04.156Z,13.80
2019-05-10T06:02:31.398Z,14.60
2019-05-10T06:05:01.179Z,21.20
2019-05-10T06:07:37.912Z,12.40
2019-05-10T06:10:10.290Z,17.20
2019-05-10T06:12:35.986Z,9.20
2019-05-10T06:15:05.647Z,15.40
2019-05-10T06:17:35.795Z,10.00
2019-05-10T06:20:07.513Z,14.20
2019-05-10T06:22:43.692Z,16.00
2019-05-10T06:25:10.041Z,15.20
2019-05-10T06:27:40.908Z,17.20
2019-05-10T06:30:10.866Z,15.60
2019-05-10T06:32:40.925Z,14.20
2019-05-10T06:35:14.257Z,14.20
2019-05-10T06:37:41.775Z,9.80
2019-05-10T06:40:11.714Z,11.60
2019-05-10T06:42:41.439Z,16.80
2019-05-10T06:45:14.689Z,12.80
2019-05-10T06:47:47.837Z,13.00
2019-05-10T06:50:14.397Z,15.20
2019-05-10T06:52:44.352Z,12.40
2019-05-10T06:55:14.451Z,12.80
2019-05-10T06:57:44.135Z,19.20
2019-05-10T07:00:14.636Z,13.60
2019-05-10T07:02:44.465Z,17.20
2019-05-10T07:05:14.184Z,18.20
2019-05-10T07:07:45.516Z,21.20
2019-05-10T07:10:18.942Z,23.20
2019-05-10T07:12:47.215Z,24.20
2019-05-10T07:15:17.074Z,22.00
2019-05-10T07:17:47.371Z,26.40
2019-05-10T07:20:17.112Z,19.40
2019-05-10T07:22:46.651Z,20.60
2019-05-10T07:25:19.250Z,24.20
2019-05-10T07:27:50.385Z,25.00
2019-05-10T07:30:32.750Z,24.40
2019-05-10T07:33:02.426Z,21.40
2019-05-10T07:35:36.655Z,20.80
2019-05-10T07:38:12.768Z,24.00
2019-05-10T07:40:42.936Z,27.80
2019-05-10T07:43:24.699Z,21.20
2019-05-10T07:45:44.382Z,30.60
2019-05-10T07:48:14.194Z,20.80
2019-05-10T07:50:49.168Z,22.20
2019-05-10T07:53:16.251Z,20.60
2019-05-10T07:55:46.768Z,30.80
2019-05-10T07:58:16.893Z,22.40
2019-05-10T08:00:46.731Z,25.40
2019-05-10T08:03:22.780Z,19.40
2019-05-10T08:05:55.021Z,25.60
2019-05-10T08:08:19.700Z,24.00
2019-05-10T08:10:49.318Z,27.40
2019-05-10T08:13:21.212Z,27.80
2019-05-10T08:15:50.320Z,24.80
2019-05-10T08:18:25.176Z,24.60
2019-05-10T08:20:56.792Z,23.80
2019-05-10T08:23:27.817Z,21.40
2019-05-10T08:25:54.836Z,21.60
2019-05-10T08:28:28.078Z,23.60
2019-05-10T08:30:58.840Z,18.60
2019-05-10T08:33:27.378Z,21.40
2019-05-10T08:36:00.456Z,23.00
2019-05-10T08:38:28.469Z,24.00
2019-05-10T08:40:58.444Z,22.40
2019-05-10T08:43:30.712Z,27.40
2019-05-10T08:46:02.617Z,18.40
2019-05-10T08:48:33.088Z,14.60
2019-05-10T08:51:06.344Z,18.40
2019-05-10T08:53:34.724Z,17.20
2019-05-10T08:56:07.529Z,12.80
2019-05-10T08:58:37.256Z,18.00
2019-05-10T09:01:20.072Z,13.80
2019-05-10T09:03:41.771Z,14.40
2019-05-10T09:06:16.446Z,20.80
2019-05-10T09:08:43.145Z,15.40
2019-05-10T09:11:13.221Z,14.80
2019-05-10T09:13:46.165Z,9.60
2019-05-10T09:16:14.755Z,12.80
2019-05-10T09:18:50.297Z,12.40
2019-05-10T09:21:15.835Z,15.80
2019-05-10T09:23:52.971Z,18.00
2019-05-10T09:26:17.351Z,13.80
2019-05-10T09:28:47.612Z,16.40
2019-05-10T09:31:21.992Z,16.80
2019-05-10T09:33:53.694Z,18.40
2019-05-10T09:36:30.811Z,18.60
2019-05-10T09:38:53.879Z,20.60
2019-05-10T09:41:27.587Z,18.00
2019-05-10T09:43:56.583Z,23.60
2019-05-10T09:46:26.607Z,18.80
2019-05-10T09:49:06.161Z,15.80
2019-05-10T09:51:30.979Z,14.60
2019-05-10T09:54:00.612Z,21.20
2019-05-10T09:56:33.029Z,24.60
2019-05-10T09:59:01.438Z,19.40
2019-05-10T10:01:31.202Z,21.60
2019-05-10T10:04:02.704Z,18.80
2019-05-10T10:06:32.319Z,20.40
2019-05-10T10:09:02.115Z,17.60
2019-05-10T10:11:31.679Z,19.80
2019-05-10T10:14:02.378Z,20.00
2019-05-10T10:16:32.025Z,15.40
2019-05-10T10:19:01.574Z,18.00
2019-05-10T10:21:35.272Z,18.40
2019-05-10T10:24:12.629Z,26.20
2019-05-10T10:26:37.463Z,22.40
2019-05-10T10:29:12.447Z,21.40
2019-05-10T10:31:51.368Z,21.40
2019-05-10T10:34:13.708Z,24.40
2019-05-10T10:36:44.157Z,20.80
2019-05-10T10:39:17.043Z,19.60
2019-05-10T10:41:48.173Z,19.40
2019-05-10T10:44:23.221Z,22.80
2019-05-10T10:46:53.002Z,21.80
2019-05-10T10:49:23.072Z,18.80
2019-05-10T10:51:54.305Z,24.20
2019-05-10T10:54:28.638Z,20.20
2019-05-10T10:56:59.347Z,24.20
2019-05-10T10:59:26.548Z,24.00
2019-05-10T11:02:25.205Z,17.60
2019-05-10T11:04:27.988Z,17.00
2019-05-10T11:07:09.840Z,22.40
2019-05-10T11:09:31.139Z,20.40
2019-05-10T11:12:01.019Z,19.00
2019-05-10T11:14:39.371Z,16.00
2019-05-10T11:17:05.571Z,22.20
2019-05-10T11:19:35.332Z,19.00
2019-05-10T11:22:09.745Z,19.20
2019-05-10T11:24:43.705Z,21.80
2019-05-10T11:27:13.145Z,12.60
2019-05-10T11:29:41.926Z,14.20
2019-05-10T11:32:16.404Z,17.20
2019-05-10T11:34:42.715Z,12.60
2019-05-10T11:37:12.280Z,12.40
2019-05-10T11:39:46.915Z,10.80
2019-05-10T11:42:15.479Z,19.40
2019-05-10T11:44:50.289Z,17.20
2019-05-10T11:47:23.952Z,12.00
2019-05-10T11:49:47.225Z,15.80
2019-05-10T11:52:16.995Z,13.00
2019-05-10T11:54:46.964Z,15.20
2019-05-10T11:57:16.740Z,14.60
2019-05-10T11:59:47.746Z,15.60
2019-05-10T12:02:37.120Z,16.80
2019-05-10T12:04:52.414Z,14.60
2019-05-10T12:07:24.551Z,12.00
2019-05-10T12:10:03.098Z,13.00
2019-05-10T12:12:29.626Z,12.60
2019-05-10T12:14:55.500Z,20.20
2019-05-10T12:17:25.205Z,15.20
2019-05-10T12:19:56.545Z,19.00
2019-05-10T12:22:31.974Z,19.00
2019-05-10T12:25:19.776Z,15.80
2019-05-10T12:27:43.742Z,16.00
2019-05-10T12:30:03.452Z,12.40
2019-05-10T12:32:36.985Z,8.20
2019-05-10T12:35:05.138Z,12.20
2019-05-10T12:37:34.698Z,13.40
2019-05-10T12:40:09.808Z,12.40
2019-05-10T12:42:36.784Z,9.40
2019-05-10T12:45:06.649Z,9.40
2019-05-10T12:47:41.464Z,8.20
2019-05-10T12:50:10.313Z,10.20
2019-05-10T12:52:42.996Z,12.20
2019-05-10T12:55:11.424Z,11.60
2019-05-10T12:57:43.582Z,12.40
2019-05-10T13:00:15.732Z,10.80
2019-05-10T13:02:50.885Z,13.00
2019-05-10T13:05:17.278Z,12.00
2019-05-10T13:10:24.147Z,10.80
2019-05-10T13:12:54.034Z,9.20
2019-05-10T13:15:31.200Z,10.80
2019-05-10T13:17:56.423Z,6.60
2019-05-10T13:20:30.730Z,6.40
2019-05-10T13:22:57.657Z,9.40
2019-05-10T13:25:27.465Z,11.60
2019-05-10T13:27:57.493Z,12.20
2019-05-10T13:30:28.027Z,10.20
2019-05-10T13:33:00.219Z,7.00
2019-05-10T13:35:29.514Z,12.80
2019-05-10T13:38:04.043Z,9.00
2019-05-10T13:40:30.951Z,7.80
2019-05-10T13:43:00.462Z,9.00
2019-05-10T13:45:31.802Z,9.00
2019-05-10T13:48:01.822Z,9.40
2019-05-10T13:50:33.530Z,12.80
2019-05-10T13:53:03.288Z,12.20
2019-05-10T13:55:32.908Z,10.00
2019-05-10T13:58:02.482Z,9.00
2019-05-10T14:00:33.995Z,9.80
2019-05-10T14:03:05.004Z,12.80
2019-05-10T14:05:40.150Z,13.50
2019-05-10T14:08:09.714Z,13.00
2019-05-10T14:10:40.139Z,12.40
2019-05-10T14:13:16.480Z,4.40
2019-05-10T14:15:43.972Z,11.60
2019-05-10T14:18:13.718Z,7.00
2019-05-10T14:20:43.638Z,11.60
2019-05-10T14:23:17.806Z,16.40
2019-05-10T14:25:48.655Z,11.60
2019-05-10T14:28:24.950Z,12.60
2019-05-10T14:30:57.421Z,13.60
2019-05-10T14:33:26.541Z,13.80
2019-05-10T14:36:00.867Z,15.00
2019-05-10T14:38:27.278Z,9.00
2019-05-10T14:40:57.095Z,12.60
2019-05-10T14:43:29.473Z,9.00
2019-05-10T14:46:00.158Z,12.80
2019-05-10T14:48:30.806Z,9.60
2019-05-10T14:51:10.566Z,12.00
2019-05-10T14:53:34.446Z,11.20
2019-05-10T14:56:08.131Z,15.00
2019-05-10T14:58:35.901Z,13.40
2019-05-10T15:01:05.510Z,10.40
2019-05-10T15:03:44.416Z,12.60
2019-05-10T15:06:06.252Z,11.60
2019-05-10T15:08:35.765Z,11.20
2019-05-10T15:11:05.417Z,13.80
2019-05-10T15:13:35.582Z,12.40
2019-05-10T15:16:12.635Z,10.80
2019-05-10T15:18:40.131Z,13.00
2019-05-10T15:21:10.320Z,10.20
2019-05-10T15:23:40.130Z,14.20
2019-05-10T15:26:12.230Z,11.60
2019-05-10T15:28:43.535Z,12.40
2019-05-10T15:31:13.025Z,12.40
2019-05-10T15:33:46.089Z,7.00
2019-05-10T15:36:15.782Z,12.00
2019-05-10T15:38:51.954Z,10.00
2019-05-10T15:41:22.265Z,13.40
2019-05-10T15:43:53.406Z,19.80
2019-05-10T15:46:23.528Z,12.40
2019-05-10T15:48:57.553Z,11.60
2019-05-10T15:51:36.244Z,12.20
2019-05-10T15:54:17.664Z,12.00
2019-05-10T15:56:47.395Z,13.00
2019-05-10T15:59:19.249Z,10.80
2019-05-10T16:01:51.210Z,11.00
2019-05-10T16:04:21.520Z,12.80
2019-05-10T16:06:51.120Z,12.00
2019-05-10T16:09:20.864Z,14.40
2019-05-10T16:11:55.813Z,14.60
2019-05-10T16:14:24.154Z,9.60
2019-05-10T16:16:53.846Z,11.40
2019-05-10T16:19:23.802Z,16.40
2019-05-10T16:21:54.663Z,14.60
2019-05-10T16:24:26.498Z,12.20
2019-05-10T16:27:00.293Z,16.80
2019-05-10T16:29:33.635Z,11.60
2019-05-10T16:32:00.983Z,13.40
2019-05-10T16:34:32.266Z,7.80
2019-05-10T16:37:06.487Z,13.60
2019-05-10T16:39:36.365Z,13.00
2019-05-10T16:42:07.752Z,10.00
2019-05-10T16:44:37.655Z,13.80
2019-05-10T16:47:07.432Z,16.40
2019-05-10T16:49:37.132Z,10.40
2019-05-10T16:52:06.745Z,13.00
2019-05-10T16:54:36.964Z,15.40
2019-05-10T16:57:06.684Z,13.00
2019-05-10T16:59:39.420Z,9.60
2019-05-10T17:02:12.201Z,9.60
2019-05-10T17:04:47.244Z,14.00
2019-05-10T17:07:20.608Z,13.40
2019-05-10T17:09:54.127Z,14.80
2019-05-10T17:12:22.148Z,12.00
2019-05-10T17:14:56.308Z,12.60
2019-05-10T17:17:23.960Z,8.00
2019-05-10T17:19:53.993Z,12.80
2019-05-10T17:22:23.974Z,7.00
2019-05-10T17:24:56.913Z,17.60
2019-05-10T17:27:27.769Z,17.00
2019-05-10T17:29:57.279Z,16.40
2019-05-10T17:32:27.071Z,14.60
2019-05-10T17:34:59.178Z,12.00
2019-05-10T17:37:35.833Z,12.80
2019-05-10T17:40:10.067Z,10.80
2019-05-10T17:42:41.145Z,7.00
2019-05-10T17:45:08.752Z,10.00
2019-05-10T17:47:38.502Z,15.60
2019-05-10T17:50:08.973Z,13.20
2019-05-10T17:52:38.569Z,6.80
2019-05-10T17:55:15.999Z,15.40
2019-05-10T17:57:41.163Z,10.80
2019-05-10T18:00:10.855Z,15.00
2019-05-10T18:02:40.422Z,13.00
2019-05-10T18:05:11.513Z,15.00
2019-05-10T18:07:41.516Z,10.80
2019-05-10T18:10:12.224Z,15.60
2019-05-10T18:12:57.381Z,12.60
2019-05-10T18:15:27.742Z,14.20
2019-05-10T18:17:57.466Z,15.40
2019-05-10T18:20:29.147Z,20.00
2019-05-10T18:22:59.828Z,9.00
2019-05-10T18:25:30.180Z,12.00
2019-05-10T18:28:00.321Z,15.00
2019-05-10T18:30:30.382Z,13.40
2019-05-10T18:33:06.539Z,9.40
2019-05-10T18:35:40.146Z,4.00
2019-05-10T18:38:13.742Z,10.00
2019-05-10T18:40:43.298Z,12.20
2019-05-10T18:43:13.176Z,9.80
2019-05-10T18:45:50.743Z,11.40
2019-05-10T18:48:20.246Z,11.00
2019-05-10T18:50:51.434Z,15.80
2019-05-10T18:53:22.951Z,10.80
2019-05-10T18:55:52.868Z,12.20
2019-05-10T18:58:29.411Z,10.80
2019-05-10T19:00:56.128Z,13.00
2019-05-10T19:03:27.952Z,11.20
2019-05-10T19:05:56.512Z,11.60
2019-05-10T19:08:26.026Z,13.80
2019-05-10T19:10:56.052Z,10.40
2019-05-10T19:13:27.468Z,13.00
2019-05-10T19:15:58.815Z,11.80
2019-05-10T19:18:29.253Z,11.20
2019-05-10T19:21:01.998Z,9.40
2019-05-10T19:23:31.532Z,12.80
2019-05-10T19:26:01.027Z,10.00
2019-05-10T19:28:30.585Z,10.00
2019-05-10T19:31:00.616Z,8.20
2019-05-10T19:33:36.624Z,7.00
2019-05-10T19:36:13.065Z,14.20
2019-05-10T19:38:40.064Z,15.40
2019-05-10T19:41:10.835Z,15.60
2019-05-10T19:43:41.159Z,12.40
2019-05-10T19:46:11.636Z,13.00
2019-05-10T19:48:44.147Z,14.20
2019-05-10T19:51:14.038Z,18.60
2019-05-10T19:53:44.094Z,16.00
2019-05-10T19:56:13.789Z,8.80
2019-05-10T19:58:48.918Z,16.20
2019-05-10T20:01:20.770Z,11.60
2019-05-10T20:03:51.389Z,13.00
2019-05-10T20:06:21.125Z,12.00
2019-05-10T20:08:51.095Z,9.80
2019-05-10T20:11:21.436Z,14.20
2019-05-10T20:13:51.256Z,16.60
2019-05-10T20:16:22.268Z,15.60
2019-05-10T20:18:52.222Z,16.20
2019-05-10T20:21:22.290Z,16.40
2019-05-10T20:23:51.880Z,16.40
2019-05-10T20:26:22.021Z,15.20
2019-05-10T20:28:51.768Z,12.00
2019-05-10T20:31:21.965Z,13.00
2019-05-10T20:33:52.036Z,15.60
2019-05-10T20:36:22.921Z,13.80
2019-05-10T20:38:52.598Z,18.20
2019-05-10T20:41:25.692Z,16.00
2019-05-10T20:43:55.793Z,19.80
2019-05-10T20:46:25.849Z,16.20
2019-05-10T20:48:55.592Z,16.00
2019-05-10T20:51:30.631Z,20.60
2019-05-10T20:54:00.333Z,15.20
2019-05-10T20:56:30.396Z,18.20
2019-05-10T20:59:00.281Z,16.80
2019-05-10T21:01:31.076Z,16.20
2019-05-10T21:04:03.904Z,21.20
2019-05-10T21:06:33.854Z,16.20
2019-05-10T21:09:08.079Z,19.80
2019-05-10T21:11:37.711Z,13.80
2019-05-10T21:14:08.307Z,20.60
2019-05-10T21:16:39.123Z,18.20
2019-05-10T21:19:08.804Z,14.20
2019-05-10T21:21:41.654Z,14.80
2019-05-10T21:24:11.584Z,18.80
2019-05-10T21:26:41.385Z,17.20
2019-05-10T21:29:16.036Z,20.80
2019-05-10T21:31:46.160Z,15.40
2019-05-10T21:34:16.630Z,15.60
2019-05-10T21:36:49.364Z,14.20
2019-05-10T21:39:19.746Z,13.80
2019-05-10T21:41:50.153Z,19.60
2019-05-10T21:44:22.378Z,17.40
2019-05-10T21:46:53.709Z,15.80
2019-05-10T21:49:24.086Z,13.20
2019-05-10T21:51:54.152Z,18.40
2019-05-10T21:54:25.416Z,18.20
2019-05-10T21:56:56.660Z,16.80
2019-05-10T21:59:26.511Z,14.60
2019-05-10T22:01:56.218Z,18.00
2019-05-10T22:04:28.114Z,12.20
2019-05-10T22:06:57.902Z,13.80
2019-05-10T22:09:27.917Z,14.20
2019-05-10T22:11:59.680Z,11.40
2019-05-10T22:14:29.159Z,16.80
2019-05-10T22:16:59.070Z,12.80
2019-05-10T22:19:28.934Z,11.20
2019-05-10T22:21:58.692Z,17.60
2019-05-10T22:24:28.541Z,19.60
2019-05-10T22:27:02.209Z,16.00
2019-05-10T22:29:32.649Z,14.60
2019-05-10T22:32:03.147Z,11.20
2019-05-10T22:34:33.001Z,12.60
2019-05-10T22:37:02.743Z,15.40
2019-05-10T22:39:33.012Z,16.40
2019-05-10T22:42:11.803Z,18.20
2019-05-10T22:44:41.473Z,12.20
2019-05-10T22:47:11.694Z,12.60
2019-05-10T22:49:42.097Z,16.60
2019-05-10T22:52:11.946Z,14.20
2019-05-10T22:54:42.012Z,40.60
2019-05-10T22:57:11.656Z,16.80
2019-05-10T22:59:42.040Z,15.40
2019-05-10T23:02:12.115Z,22.20
2019-05-10T23:04:42.084Z,19.80
2019-05-10T23:07:11.882Z,16.00
2019-05-10T23:09:41.637Z,18.40
2019-05-10T23:12:11.303Z,16.00
2019-05-10T23:14:41.513Z,16.80
2019-05-10T23:17:11.474Z,11.20
2019-05-10T23:19:41.379Z,15.40
2019-05-10T23:22:11.420Z,10.60
2019-05-10T23:24:41.350Z,9.40
2019-05-10T23:27:11.339Z,14.40
2019-05-10T23:29:41.267Z,9.00
2019-05-10T23:32:10.971Z,8.60
2019-05-10T23:34:40.664Z,6.40
2019-05-10T23:37:11.009Z,9.00
2019-05-10T23:39:41.542Z,6.20
2019-05-10T23:42:11.909Z,7.80
2019-05-10T23:44:41.754Z,6.00
2019-05-10T23:47:11.942Z,6.80
2019-05-10T23:49:42.270Z,7.20
2019-05-10T23:52:12.137Z,6.20
2019-05-10T23:54:42.170Z,7.00
2019-05-10T23:57:12.117Z,6.60
2019-05-10T23:59:41.857Z,4.00
